createdAt,value
2022-09-10T00:01:12.431Z,5.00
2022-09-10T00:03:43.114Z,4.95
2022-09-10T00:06:13.751Z,4.90
2022-09-10T00:08:42.979Z,4.40
2022-09-10T00:11:12.464Z,5.90
2022-09-10T00:13:42.368Z,5.68
2022-09-10T00:16:15.577Z,6.25
2022-09-10T00:18:44.795Z,4.93
2022-09-10T00:21:20.893Z,4.43
2022-09-10T00:23:50.117Z,3.88
2022-09-10T00:26:22.761Z,3.65
2022-09-10T00:28:54.360Z,3.83
2022-09-10T00:31:24.673Z,3.83
2022-09-10T00:33:54.897Z,4.18
2022-09-10T00:36:27.734Z,4.38
2022-09-10T00:39:00.310Z,3.80
2022-09-10T00:41:30.546Z,3.45
2022-09-10T00:44:02.406Z,3.97
2022-09-10T00:46:40.288Z,4.93
2022-09-10T00:49:15.936Z,4.88
2022-09-10T00:51:49.010Z,4.93
2022-09-10T00:54:21.087Z,4.05
2022-09-10T00:56:50.896Z,4.90
2022-09-10T00:59:22.467Z,5.20
2022-09-10T01:01:51.724Z,5.00
2022-09-10T01:04:20.944Z,4.47
2022-09-10T01:06:52.408Z,4.03
2022-09-10T01:09:22.899Z,4.13
2022-09-10T01:12:10.911Z,4.72
2022-09-10T01:17:34.073Z,4.25
2022-09-10T01:20:36.034Z,4.32
2022-09-10T01:23:26.536Z,4.68
2022-09-10T01:26:08.965Z,4.85
2022-09-10T01:28:46.583Z,12.57
2022-09-10T01:31:24.892Z,7.43
2022-09-10T01:34:02.539Z,8.55
2022-09-10T01:36:38.735Z,6.13
2022-09-10T01:39:08.608Z,7.07
2022-09-10T01:41:38.487Z,5.63
2022-09-10T01:44:43.134Z,5.20
2022-09-10T01:47:22.901Z,5.60
2022-09-10T01:50:17.310Z,11.80
2022-09-10T01:53:05.207Z,7.10
2022-09-10T01:55:43.750Z,22.67
2022-09-10T01:58:24.813Z,10.18
2022-09-10T02:01:17.529Z,6.82
2022-09-10T02:03:50.041Z,6.32
2022-09-10T02:06:26.436Z,7.22
2022-09-10T02:08:57.673Z,8.52
2022-09-10T02:11:28.425Z,9.10
2022-09-10T02:14:00.508Z,11.45
2022-09-10T02:44:08.712Z,13.60
2022-09-10T02:46:39.348Z,13.55
2022-09-10T02:49:09.990Z,14.55
2022-09-10T02:51:41.843Z,15.30
2022-09-10T02:54:11.156Z,15.45
2022-09-10T02:56:40.092Z,12.43
2022-09-10T02:59:10.426Z,11.80
2022-09-10T03:01:39.488Z,10.05
2022-09-10T03:04:10.942Z,9.15
2022-09-10T03:06:40.911Z,10.18
2022-09-10T03:09:10.286Z,8.65
2022-09-10T03:11:40.801Z,7.28
2022-09-10T03:14:13.134Z,9.13
2022-09-10T03:16:42.145Z,7.43
2022-09-10T03:19:11.338Z,7.40
2022-09-10T03:21:41.434Z,7.13
2022-09-10T03:24:15.176Z,6.95
2022-09-10T03:26:44.588Z,8.48
2022-09-10T03:29:18.505Z,9.27
2022-09-10T03:31:47.494Z,8.57
2022-09-10T03:34:18.523Z,9.60
2022-09-10T03:36:48.873Z,10.20
2022-09-10T03:39:18.861Z,10.95
2022-09-10T03:41:48.392Z,13.43
2022-09-10T03:44:19.772Z,13.77
2022-09-10T03:46:51.265Z,11.57
2022-09-10T03:49:20.717Z,10.23
2022-09-10T03:51:51.204Z,10.07
2022-09-10T03:54:20.556Z,11.82
2022-09-10T03:56:49.641Z,10.57
2022-09-10T03:59:20.920Z,10.98
2022-09-10T04:01:50.750Z,9.98
2022-09-10T04:04:19.694Z,9.90
2022-09-10T04:06:48.642Z,10.98
2022-09-10T04:09:18.825Z,9.48
2022-09-10T04:11:48.283Z,9.23
2022-09-10T04:14:17.392Z,9.15
2022-09-10T04:16:47.840Z,8.15
2022-09-10T04:19:21.080Z,9.05
2022-09-10T04:21:53.023Z,9.73
2022-09-10T04:24:22.109Z,9.82
2022-09-10T04:26:52.253Z,9.93
2022-09-10T04:29:21.312Z,9.57
2022-09-10T04:31:52.669Z,8.30
2022-09-10T04:34:23.420Z,8.52
2022-09-10T04:36:53.674Z,7.75
2022-09-10T04:39:23.307Z,8.30
2022-09-10T04:41:52.462Z,7.88
2022-09-10T04:44:21.460Z,8.25
2022-09-10T04:46:51.850Z,8.50
2022-09-10T04:49:20.899Z,7.35
2022-09-10T04:51:50.270Z,8.73
2022-09-10T04:54:20.115Z,8.90
2022-09-10T04:56:51.222Z,9.18
2022-09-10T04:59:20.522Z,9.25
2022-09-10T05:04:33.173Z,12.27
2022-09-10T05:07:02.570Z,15.15
2022-09-10T05:09:33.550Z,15.48
2022-09-10T05:12:06.331Z,15.52
2022-09-10T05:14:35.467Z,13.93
2022-09-10T05:17:05.471Z,13.85
2022-09-10T05:19:37.338Z,13.43
2022-09-10T05:22:09.777Z,12.10
2022-09-10T05:24:38.743Z,13.00
2022-09-10T05:27:08.864Z,14.02
2022-09-10T05:29:38.000Z,12.98
2022-09-10T05:32:09.467Z,14.65
2022-09-10T05:34:40.041Z,12.90
2022-09-10T05:37:09.252Z,12.30
2022-09-10T05:39:39.046Z,11.98
2022-09-10T05:42:08.803Z,12.27
2022-09-10T05:44:40.445Z,12.32
2022-09-10T05:47:09.760Z,11.80
2022-09-10T05:49:40.272Z,13.85
2022-09-10T05:52:09.623Z,12.30
2022-09-10T05:54:38.965Z,10.73
2022-09-10T05:57:08.808Z,11.57
2022-09-10T05:59:39.936Z,11.68
2022-09-10T06:02:18.682Z,11.52
2022-09-10T06:04:52.909Z,11.00
2022-09-10T06:07:22.674Z,11.60
2022-09-10T06:09:51.920Z,11.85
2022-09-10T06:12:34.245Z,10.77
2022-09-10T06:15:04.357Z,9.02
2022-09-10T06:17:35.679Z,8.82
2022-09-10T06:20:09.506Z,8.85
2022-09-10T06:22:41.646Z,7.82
2022-09-10T06:25:11.358Z,7.95
2022-09-10T06:27:41.312Z,8.15
2022-09-10T06:30:11.488Z,7.97
2022-09-10T06:32:43.057Z,7.38
2022-09-10T06:35:13.669Z,7.20
2022-09-10T06:37:42.776Z,6.13
2022-09-10T06:40:13.555Z,6.03
2022-09-10T06:42:44.254Z,5.45
2022-09-10T06:45:16.328Z,5.22
2022-09-10T06:50:58.219Z,4.50
2022-09-10T06:53:33.703Z,4.15
2022-09-10T06:56:08.329Z,3.60
2022-09-10T06:58:39.213Z,4.13
2022-09-10T07:01:13.173Z,4.03
2022-09-10T07:03:44.587Z,3.90
2022-09-10T07:06:17.410Z,3.67
2022-09-10T07:08:49.898Z,4.40
2022-09-10T07:11:18.967Z,3.80
2022-09-10T07:13:52.985Z,4.00
2022-09-10T07:16:28.235Z,3.65
2022-09-10T07:19:00.848Z,3.40
2022-09-10T07:21:40.349Z,3.05
2022-09-10T07:24:14.431Z,2.83
2022-09-10T07:27:03.693Z,2.72
2022-09-10T07:29:33.241Z,2.90
2022-09-10T07:32:04.464Z,1.90
2022-09-10T07:34:34.553Z,2.42
2022-09-10T07:37:05.511Z,1.80
2022-09-10T07:39:34.594Z,1.77
2022-09-10T07:42:06.344Z,2.25
2022-09-10T07:44:38.359Z,2.20
2022-09-10T07:47:08.487Z,2.10
2022-09-10T07:49:38.586Z,1.85
2022-09-10T07:52:10.345Z,2.10
2022-09-10T07:54:47.593Z,2.00
2022-09-10T07:57:17.572Z,2.03
2022-09-10T07:59:47.623Z,2.05
2022-09-10T08:02:20.550Z,2.17
2022-09-10T08:04:56.662Z,2.45
2022-09-10T08:07:27.549Z,1.77
2022-09-10T08:09:57.529Z,2.00
2022-09-10T08:12:26.869Z,1.92
2022-09-10T08:14:57.891Z,2.20
2022-09-10T08:17:31.042Z,2.10
2022-09-10T08:20:01.321Z,1.40
2022-09-10T08:22:32.220Z,1.95
2022-09-10T08:25:02.621Z,1.50
2022-09-10T08:27:34.463Z,1.65
2022-09-10T08:30:10.229Z,0.80
2022-09-10T08:32:40.260Z,0.90
2022-09-10T08:35:10.095Z,1.30
2022-09-10T08:37:40.806Z,1.40
2022-09-10T08:40:13.436Z,1.60
2022-09-10T08:42:48.288Z,1.40
2022-09-10T08:45:23.742Z,1.70
2022-09-10T08:48:04.573Z,1.63
2022-09-10T08:50:46.243Z,1.60
2022-09-10T08:53:28.473Z,1.70
2022-09-10T08:56:06.700Z,0.93
2022-09-10T08:58:44.869Z,1.20
2022-09-10T09:01:22.507Z,0.80
2022-09-10T09:06:31.858Z,0.77
2022-09-10T09:09:05.152Z,0.82
2022-09-10T09:11:50.595Z,0.93
2022-09-10T09:14:42.176Z,1.00
2022-09-10T09:17:42.360Z,0.90
2022-09-10T09:20:19.558Z,0.80
2022-09-10T09:22:55.173Z,0.95
2022-09-10T09:25:48.823Z,1.00
2022-09-10T09:28:31.685Z,0.60
2022-09-10T09:31:09.330Z,0.90
2022-09-10T09:33:40.029Z,1.00
2022-09-10T09:36:18.180Z,0.90
2022-09-10T09:38:50.950Z,0.75
2022-09-10T09:41:31.037Z,0.80
2022-09-10T09:44:06.947Z,0.60
2022-09-10T09:46:36.285Z,12.00
2022-09-10T09:49:16.638Z,5.35
2022-09-10T09:51:52.035Z,2.40
2022-09-10T09:57:20.697Z,90.25
2022-09-10T09:59:52.594Z,42.90
2022-09-10T10:02:25.254Z,7.00
2022-09-10T10:05:04.925Z,0.80
2022-09-10T10:07:36.530Z,0.85
2022-09-10T10:10:08.549Z,0.80
2022-09-10T10:12:49.597Z,0.90
2022-09-10T10:15:37.702Z,1.00
2022-09-10T10:18:31.881Z,0.93
2022-09-10T10:21:17.651Z,0.77
2022-09-10T10:23:47.683Z,0.90
2022-09-10T10:26:30.474Z,1.17
2022-09-10T10:29:06.358Z,0.52
2022-09-10T10:31:47.174Z,0.93
2022-09-10T10:34:42.531Z,1.10
2022-09-10T10:37:23.107Z,0.80
2022-09-10T10:40:11.502Z,1.00
2022-09-10T10:42:45.011Z,0.80
2022-09-10T10:45:37.809Z,0.90
2022-09-10T10:48:13.934Z,0.90
2022-09-10T10:50:54.907Z,0.75
2022-09-10T10:53:43.267Z,0.65
2022-09-10T10:56:19.166Z,0.77
2022-09-10T10:59:05.254Z,0.88
2022-09-10T11:01:42.690Z,0.93
2022-09-10T11:04:27.422Z,0.80
2022-09-10T11:07:02.100Z,0.65
2022-09-10T11:09:39.158Z,0.80
2022-09-10T11:12:16.627Z,0.60
2022-09-10T11:17:28.704Z,0.70
2022-09-10T11:20:30.627Z,0.75
2022-09-10T11:23:27.997Z,0.77
2022-09-10T11:26:04.850Z,0.65
2022-09-10T11:28:39.810Z,0.50
2022-09-10T11:31:17.351Z,0.55
2022-09-10T11:34:02.534Z,0.47
2022-09-10T11:36:42.051Z,0.50
2022-09-10T11:39:20.878Z,0.50
2022-09-10T11:41:54.812Z,0.40
2022-09-10T11:44:44.707Z,0.70
2022-09-10T11:47:20.482Z,0.82
2022-09-10T11:50:01.456Z,0.55
2022-09-10T11:52:33.691Z,0.80
2022-09-10T11:55:05.012Z,0.85
2022-09-10T11:57:54.101Z,0.73
2022-09-10T12:00:43.066Z,0.55
2022-09-10T12:04:23.697Z,1.20
2022-09-10T12:07:20.783Z,0.90
2022-09-10T12:10:24.097Z,0.63
2022-09-10T12:13:10.999Z,0.52
2022-09-10T12:15:40.693Z,0.60
2022-09-10T12:18:19.637Z,0.57
2022-09-10T12:20:53.759Z,0.73
2022-09-10T12:23:31.502Z,0.70
2022-09-10T12:26:07.768Z,0.60
2022-09-10T12:29:04.051Z,0.88
2022-09-10T12:32:37.061Z,0.68
2022-09-10T12:35:46.686Z,0.70
2022-09-10T12:39:13.194Z,0.90
2022-09-10T12:42:02.143Z,0.70
2022-09-10T12:44:48.694Z,0.60
2022-09-10T12:47:46.928Z,0.52
2022-09-10T12:50:31.889Z,0.50
2022-09-10T12:53:51.796Z,0.52
2022-09-10T12:56:59.817Z,0.88
2022-09-10T13:00:04.514Z,0.65
2022-09-10T13:02:37.443Z,0.68
2022-09-10T13:05:20.667Z,0.43
2022-09-10T13:08:10.670Z,0.45
2022-09-10T13:10:41.020Z,1.15
2022-09-10T13:13:33.132Z,0.50
2022-09-10T13:16:05.572Z,1.08
2022-09-10T13:18:36.897Z,0.82
2022-09-10T13:21:52.944Z,0.80
2022-09-10T13:24:56.480Z,0.50
2022-09-10T13:27:40.039Z,0.98
2022-09-10T13:30:19.030Z,0.98
2022-09-10T13:32:53.694Z,2.17
2022-09-10T13:36:22.662Z,1.80
2022-09-10T13:39:13.971Z,3.45
2022-09-10T13:42:42.841Z,3.17
2022-09-10T13:45:38.683Z,2.47
2022-09-10T13:48:17.445Z,1.92
2022-09-10T13:50:57.951Z,2.78
2022-09-10T13:53:29.877Z,2.35
2022-09-10T13:56:03.041Z,2.28
2022-09-10T13:58:37.800Z,2.33
2022-09-10T14:01:08.297Z,2.15
2022-09-10T14:03:40.614Z,2.17
2022-09-10T14:06:12.669Z,2.58
2022-09-10T14:08:48.001Z,1.63
2022-09-10T14:11:21.126Z,1.85
2022-09-10T14:13:56.063Z,1.80
2022-09-10T14:16:35.725Z,2.03
2022-09-10T14:19:10.054Z,2.47
2022-09-10T14:21:39.221Z,2.00
2022-09-10T14:24:30.776Z,2.15
2022-09-10T14:27:15.606Z,1.80
2022-09-10T14:29:46.495Z,1.90
2022-09-10T14:32:31.877Z,1.77
2022-09-10T14:35:23.016Z,0.98
2022-09-10T14:37:52.060Z,0.90
2022-09-10T14:40:23.336Z,1.27
2022-09-10T14:42:52.459Z,1.23
2022-09-10T14:45:42.898Z,1.38
2022-09-10T14:48:40.551Z,1.50
2022-09-10T14:51:22.733Z,1.37
2022-09-10T14:53:53.571Z,1.30
2022-09-10T14:56:28.633Z,1.63
2022-09-10T14:59:01.696Z,1.38
2022-09-10T15:01:31.783Z,0.93
2022-09-10T15:04:03.472Z,1.77
2022-09-10T15:06:32.703Z,1.55
2022-09-10T15:09:01.727Z,1.58
2022-09-10T15:11:30.871Z,2.83
2022-09-10T15:14:00.895Z,1.70
2022-09-10T15:16:31.021Z,1.50
2022-09-10T15:19:01.538Z,1.48
2022-09-10T15:21:31.019Z,1.60
2022-09-10T15:24:00.139Z,1.60
2022-09-10T15:26:29.297Z,2.03
2022-09-10T15:28:59.350Z,2.17
2022-09-10T15:31:32.482Z,1.92
2022-09-10T15:34:03.646Z,1.50
2022-09-10T15:36:32.675Z,2.60
2022-09-10T15:39:01.760Z,3.17
2022-09-10T15:41:31.737Z,2.80
2022-09-10T15:44:02.860Z,2.35
2022-09-10T15:46:32.421Z,2.35
2022-09-10T15:49:04.151Z,1.83
2022-09-10T15:51:34.288Z,1.63
2022-09-10T15:54:05.339Z,1.35
2022-09-10T15:56:36.695Z,1.45
2022-09-10T15:59:08.570Z,1.35
2022-09-10T16:01:39.676Z,1.23
2022-09-10T16:04:10.933Z,1.73
2022-09-10T16:06:41.708Z,1.55
2022-09-10T16:09:13.760Z,1.08
2022-09-10T16:11:44.469Z,1.52
2022-09-10T16:14:15.980Z,1.20
2022-09-10T16:16:45.763Z,1.70
2022-09-10T16:19:16.422Z,1.55
2022-09-10T16:21:46.372Z,1.65
2022-09-10T16:24:15.445Z,1.80
2022-09-10T16:26:46.039Z,1.60
2022-09-10T16:29:17.360Z,2.30
2022-09-10T16:31:48.428Z,2.15
2022-09-10T16:34:22.191Z,2.22
2022-09-10T16:36:51.734Z,1.60
2022-09-10T16:39:22.304Z,2.22
2022-09-10T16:41:52.346Z,2.58
2022-09-10T16:44:21.497Z,3.50
2022-09-10T16:46:50.873Z,2.78
2022-09-10T16:49:21.764Z,2.00
2022-09-10T16:51:50.994Z,2.00
2022-09-10T16:54:21.635Z,2.00
2022-09-10T16:56:51.967Z,2.20
2022-09-10T16:59:24.195Z,2.70
2022-09-10T17:01:54.074Z,2.70
2022-09-10T17:04:28.939Z,2.55
2022-09-10T17:06:59.084Z,2.90
2022-09-10T17:09:28.265Z,2.97
2022-09-10T17:11:57.291Z,3.13
2022-09-10T17:14:26.388Z,3.40
2022-09-10T17:16:56.408Z,3.10
2022-09-10T17:19:27.499Z,3.28
2022-09-10T17:21:57.919Z,3.15
2022-09-10T17:24:28.052Z,3.03
2022-09-10T17:26:57.726Z,3.45
2022-09-10T17:29:27.576Z,3.40
2022-09-10T17:31:57.615Z,3.80
2022-09-10T17:34:28.586Z,4.80
2022-09-10T17:36:57.899Z,3.80
2022-09-10T17:39:28.403Z,4.03
2022-09-10T17:41:58.143Z,3.80
2022-09-10T17:44:27.596Z,2.40
2022-09-10T17:46:56.804Z,2.72
2022-09-10T17:49:27.559Z,2.70
2022-09-10T17:51:56.804Z,2.60
2022-09-10T17:54:26.123Z,2.60
2022-09-10T17:56:55.148Z,2.05
2022-09-10T17:59:25.130Z,2.28
2022-09-10T18:01:54.403Z,2.30
2022-09-10T18:04:23.532Z,2.78
2022-09-10T18:06:54.309Z,2.22
2022-09-10T18:09:25.439Z,2.38
2022-09-10T18:11:56.452Z,2.80
2022-09-10T18:14:26.185Z,2.60
2022-09-10T18:16:57.881Z,2.47
2022-09-10T18:19:26.912Z,3.42
2022-09-10T18:21:57.504Z,2.50
2022-09-10T18:24:28.147Z,3.22
2022-09-10T18:26:57.843Z,3.17
2022-09-10T18:29:30.257Z,2.70
2022-09-10T18:32:01.827Z,2.72
2022-09-10T18:34:32.083Z,2.72
2022-09-10T18:37:04.049Z,2.65
2022-09-10T18:39:34.315Z,2.40
2022-09-10T18:42:03.603Z,2.30
2022-09-10T18:44:36.597Z,2.15
2022-09-10T18:47:17.758Z,2.65
2022-09-10T18:49:52.054Z,2.50
2022-09-10T18:52:22.772Z,3.83
2022-09-10T18:54:52.222Z,2.70
2022-09-10T18:57:21.421Z,2.17
2022-09-10T18:59:55.126Z,2.05
2022-09-10T19:02:24.290Z,2.20
2022-09-10T19:05:11.856Z,2.45
2022-09-10T19:10:12.155Z,3.13
2022-09-10T19:12:41.516Z,2.60
2022-09-10T19:15:12.052Z,2.58
2022-09-10T19:17:41.339Z,2.50
2022-09-10T19:20:10.901Z,2.20
2022-09-10T19:22:40.336Z,2.20
2022-09-10T19:25:11.037Z,2.10
2022-09-10T19:27:41.049Z,2.00
2022-09-10T19:30:12.314Z,2.60
2022-09-10T19:32:41.411Z,2.53
2022-09-10T19:35:11.436Z,2.10
2022-09-10T19:37:41.429Z,2.40
2022-09-10T19:40:13.126Z,2.35
2022-09-10T19:42:42.183Z,2.70
2022-09-10T19:45:12.851Z,2.47
2022-09-10T19:47:43.131Z,2.50
2022-09-10T19:50:12.386Z,3.20
2022-09-10T19:52:41.456Z,3.05
2022-09-10T19:55:12.913Z,2.60
2022-09-10T19:57:42.067Z,2.78
2022-09-10T20:00:36.155Z,2.10
2022-09-10T20:03:04.620Z,3.47
2022-09-10T20:05:34.352Z,2.75
2022-09-10T20:08:04.731Z,2.78
2022-09-10T20:10:35.219Z,2.75
2022-09-10T20:13:04.798Z,2.85
2022-09-10T20:15:33.912Z,2.83
2022-09-10T20:18:03.879Z,2.38
2022-09-10T20:20:32.939Z,2.40
2022-09-10T20:23:02.311Z,2.47
2022-09-10T20:25:32.030Z,2.60
2022-09-10T20:28:03.299Z,2.15
2022-09-10T20:30:33.231Z,3.08
2022-09-10T20:33:02.422Z,2.85
2022-09-10T20:35:31.571Z,3.33
2022-09-10T20:38:00.889Z,2.92
2022-09-10T20:40:30.036Z,3.20
2022-09-10T20:42:59.300Z,3.53
2022-09-10T20:45:31.156Z,3.38
2022-09-10T20:48:00.741Z,3.10
2022-09-10T20:50:29.780Z,3.30
2022-09-10T20:52:58.856Z,3.13
2022-09-10T20:55:27.932Z,3.38
2022-09-10T20:57:57.047Z,3.25
2022-09-10T21:00:26.099Z,2.90
2022-09-10T21:02:56.516Z,2.50
2022-09-10T21:05:25.889Z,2.65
2022-09-10T21:07:55.256Z,3.75
2022-09-10T21:10:24.348Z,7.97
2022-09-10T21:12:53.858Z,9.07
2022-09-10T21:15:22.900Z,7.90
2022-09-10T21:17:51.976Z,4.72
2022-09-10T21:20:23.281Z,5.00
2022-09-10T21:22:53.232Z,4.22
2022-09-10T21:25:22.439Z,5.18
2022-09-10T21:27:51.580Z,5.05
2022-09-10T21:30:20.582Z,8.10
2022-09-10T21:32:50.043Z,8.52
2022-09-10T21:35:19.224Z,8.85
2022-09-10T21:37:49.717Z,10.57
2022-09-10T21:40:18.889Z,12.00
2022-09-10T21:42:47.959Z,12.65
2022-09-10T21:45:19.577Z,10.52
2022-09-10T21:47:49.779Z,9.85
2022-09-10T21:50:18.825Z,8.90
2022-09-10T21:52:49.212Z,9.43
2022-09-10T21:55:18.304Z,9.77
2022-09-10T21:57:47.267Z,9.85
2022-09-10T22:00:17.164Z,9.93
2022-09-10T22:02:46.298Z,9.32
2022-09-10T22:05:15.664Z,8.15
2022-09-10T22:07:44.707Z,7.35
2022-09-10T22:10:15.425Z,9.27
2022-09-10T22:12:44.728Z,8.95
2022-09-10T22:15:14.118Z,10.05
2022-09-10T22:17:44.173Z,10.30
2022-09-10T22:20:13.249Z,9.93
2022-09-10T22:22:43.043Z,8.57
2022-09-10T22:25:12.359Z,8.75
2022-09-10T22:27:43.665Z,8.50
2022-09-10T22:30:13.416Z,6.13
2022-09-10T22:32:42.500Z,3.95
2022-09-10T22:35:11.512Z,3.70
2022-09-10T22:37:40.515Z,3.40
2022-09-10T22:40:11.620Z,3.10
2022-09-10T22:42:42.136Z,5.88
2022-09-10T22:45:12.556Z,7.38
2022-09-10T22:47:41.684Z,6.15
2022-09-10T22:50:12.484Z,3.85
2022-09-10T22:52:43.708Z,3.10
2022-09-10T22:55:13.561Z,3.50
2022-09-10T22:57:45.224Z,3.33
2022-09-10T23:00:15.769Z,2.55
2022-09-10T23:02:46.370Z,7.72
2022-09-10T23:05:15.679Z,8.00
2022-09-10T23:07:44.907Z,7.07
2022-09-10T23:10:14.012Z,8.80
2022-09-10T23:12:44.545Z,9.32
2022-09-10T23:15:13.627Z,10.30
2022-09-10T23:17:43.006Z,10.63
2022-09-10T23:20:12.396Z,15.13
2022-09-10T23:22:41.545Z,14.93
2022-09-10T23:27:55.167Z,25.98
2022-09-10T23:30:24.335Z,26.45
2022-09-10T23:32:53.883Z,27.55
2022-09-10T23:35:22.969Z,27.98
2022-09-10T23:37:52.444Z,26.83
2022-09-10T23:40:27.217Z,23.75
2022-09-10T23:42:59.370Z,22.20
2022-09-10T23:45:28.484Z,21.42
2022-09-10T23:47:58.146Z,23.65
2022-09-10T23:50:27.127Z,25.25
2022-09-10T23:52:56.179Z,18.45
2022-09-10T23:55:25.240Z,20.25
2022-09-10T23:57:54.398Z,16.05
